createdAt,value
2022-11-16T00:02:01.080Z,98099.80
2022-11-16T00:04:37.348Z,98095.40
2022-11-16T00:07:13.710Z,98087.80
2022-11-16T00:09:49.702Z,98082.20
2022-11-16T00:12:25.832Z,98086.40
2022-11-16T00:15:01.882Z,98085.80
2022-11-16T00:17:37.619Z,98086.80
2022-11-16T00:20:15.827Z,98084.80
2022-11-16T00:22:51.642Z,98080.80
2022-11-16T00:25:27.638Z,98089.40
2022-11-16T00:28:03.447Z,98089.80
2022-11-16T00:30:39.781Z,98086.00
2022-11-16T00:33:18.362Z,98083.80
2022-11-16T00:35:54.214Z,98082.20
2022-11-16T00:38:30.563Z,98086.40
2022-11-16T00:41:07.385Z,98082.20
2022-11-16T00:43:43.352Z,98082.80
2022-11-16T00:46:19.441Z,98085.40
2022-11-16T00:48:55.504Z,98077.60
2022-11-16T00:51:31.502Z,98079.00
2022-11-16T00:54:10.027Z,98075.40
2022-11-16T00:56:46.131Z,98075.00
2022-11-16T00:59:21.964Z,98072.00
2022-11-16T01:01:57.926Z,98070.20
2022-11-16T01:04:33.800Z,98065.20
2022-11-16T01:07:09.906Z,98064.20
2022-11-16T01:09:45.838Z,98061.00
2022-11-16T01:12:21.736Z,98060.20
2022-11-16T01:14:57.984Z,98057.40
2022-11-16T01:17:33.889Z,98055.40
2022-11-16T01:20:16.711Z,98061.60
2022-11-16T01:22:52.831Z,98061.00
2022-11-16T01:25:28.937Z,98056.80
2022-11-16T01:28:05.089Z,98057.80
2022-11-16T01:30:54.945Z,98050.40
2022-11-16T01:33:31.503Z,98049.40
2022-11-16T01:36:14.837Z,98043.20
2022-11-16T01:38:51.766Z,98038.40
2022-11-16T01:41:30.328Z,98029.60
2022-11-16T01:44:47.848Z,98026.20
2022-11-16T01:47:26.169Z,98015.80
2022-11-16T01:50:14.286Z,98008.40
2022-11-16T01:52:59.933Z,98009.60
2022-11-16T01:55:44.484Z,98005.80
2022-11-16T01:58:30.054Z,98005.00
2022-11-16T02:01:12.283Z,97999.20
2022-11-16T02:03:53.015Z,97997.00
2022-11-16T02:06:59.994Z,98001.80
2022-11-16T02:10:07.970Z,98000.00
2022-11-16T02:13:22.041Z,97992.00
2022-11-16T02:16:13.413Z,97986.00
2022-11-16T02:19:03.171Z,97982.60
2022-11-16T02:21:48.382Z,97983.20
2022-11-16T02:25:00.271Z,97982.40
2022-11-16T02:28:27.467Z,97977.00
2022-11-16T02:31:14.293Z,97975.00
2022-11-16T02:33:54.210Z,97969.40
2022-11-16T02:36:33.622Z,97963.40
2022-11-16T02:39:16.958Z,97963.00
2022-11-16T02:41:57.081Z,97962.60
2022-11-16T02:44:37.809Z,97964.20
2022-11-16T02:47:21.358Z,97956.40
2022-11-16T02:50:05.043Z,97946.60
2022-11-16T02:52:41.791Z,97953.80
2022-11-16T02:55:19.049Z,97951.80
2022-11-16T02:58:02.683Z,97950.00
2022-11-16T03:00:49.160Z,97946.00
2022-11-16T03:03:40.791Z,97942.40
2022-11-16T03:06:24.392Z,97942.00
2022-11-16T03:09:10.203Z,97939.00
2022-11-16T03:12:02.970Z,97936.60
2022-11-16T03:14:50.231Z,97937.40
2022-11-16T03:17:33.925Z,97932.20
2022-11-16T03:20:17.086Z,97933.40
2022-11-16T03:22:59.045Z,97930.60
2022-11-16T03:25:42.145Z,97937.00
2022-11-16T03:28:29.448Z,97935.60
2022-11-16T03:31:18.804Z,97935.80
2022-11-16T03:33:59.360Z,97934.00
2022-11-16T03:36:40.780Z,97933.00
2022-11-16T03:39:24.789Z,97929.00
2022-11-16T03:42:04.465Z,97923.60
2022-11-16T03:44:41.975Z,97924.60
2022-11-16T03:47:18.967Z,97922.60
2022-11-16T03:49:54.749Z,97924.40
2022-11-16T03:52:32.557Z,97928.40
2022-11-16T03:55:10.851Z,97923.80
2022-11-16T03:57:46.779Z,97919.80
2022-11-16T04:00:23.070Z,97915.40
2022-11-16T04:03:00.645Z,97919.00
2022-11-16T04:05:54.538Z,97923.20
2022-11-16T04:08:47.794Z,97921.00
2022-11-16T04:11:44.537Z,97920.00
2022-11-16T04:14:50.976Z,97920.40
2022-11-16T04:17:46.139Z,97915.60
2022-11-16T04:20:45.991Z,97914.00
2022-11-16T04:23:39.741Z,97913.60
2022-11-16T04:26:16.307Z,97908.40
2022-11-16T04:28:52.161Z,97903.80
2022-11-16T04:31:45.820Z,97898.20
2022-11-16T04:34:39.389Z,97895.60
2022-11-16T04:37:38.019Z,97892.80
2022-11-16T04:40:17.557Z,97892.20
2022-11-16T04:42:59.471Z,97891.00
2022-11-16T04:45:55.397Z,97892.00
2022-11-16T04:48:34.168Z,97892.80
2022-11-16T04:51:11.984Z,97891.40
2022-11-16T04:53:48.198Z,97888.60
2022-11-16T04:56:27.904Z,97882.60
2022-11-16T04:59:03.983Z,97884.40
2022-11-16T05:01:57.745Z,97880.80
2022-11-16T05:04:33.994Z,97880.60
2022-11-16T05:07:12.425Z,97879.40
2022-11-16T05:09:51.474Z,97883.40
2022-11-16T05:12:30.237Z,97878.20
2022-11-16T05:15:10.645Z,97880.40
2022-11-16T05:17:46.484Z,97876.60
2022-11-16T05:20:43.213Z,97871.20
2022-11-16T05:23:36.699Z,97872.60
2022-11-16T05:26:16.328Z,97871.80
2022-11-16T05:28:52.156Z,97868.80
2022-11-16T05:31:28.121Z,97866.20
2022-11-16T05:34:04.295Z,97867.00
2022-11-16T05:36:40.341Z,97871.40
2022-11-16T05:39:17.196Z,97871.00
2022-11-16T05:41:53.380Z,97867.80
2022-11-16T05:44:29.852Z,97867.60
2022-11-16T05:47:06.298Z,97871.80
2022-11-16T05:49:42.386Z,97872.60
2022-11-16T05:52:18.286Z,97876.40
2022-11-16T05:54:54.492Z,97870.40
2022-11-16T05:57:30.620Z,97871.00
2022-11-16T06:00:08.834Z,97862.60
2022-11-16T06:03:02.881Z,97863.20
2022-11-16T06:05:41.574Z,97857.20
2022-11-16T06:08:18.698Z,97856.00
2022-11-16T06:10:55.595Z,97849.80
2022-11-16T06:13:31.984Z,97848.60
2022-11-16T06:16:10.536Z,97846.20
2022-11-16T06:18:48.945Z,97847.60
2022-11-16T06:21:25.309Z,97850.00
2022-11-16T06:24:02.845Z,97850.40
2022-11-16T06:26:39.823Z,97852.00
2022-11-16T06:29:16.039Z,97850.00
2022-11-16T06:31:52.037Z,97851.40
2022-11-16T06:34:28.231Z,97847.60
2022-11-16T06:37:05.620Z,97851.40
2022-11-16T06:39:44.463Z,97854.20
2022-11-16T06:42:20.580Z,97849.60
2022-11-16T06:44:56.680Z,97848.80
2022-11-16T06:47:36.100Z,97848.60
2022-11-16T06:50:14.062Z,97844.40
2022-11-16T06:52:50.721Z,97845.80
2022-11-16T06:55:27.038Z,97846.00
2022-11-16T06:58:03.028Z,97838.60
2022-11-16T07:00:39.916Z,97837.00
2022-11-16T07:03:17.391Z,97836.60
2022-11-16T07:05:53.275Z,97835.00
2022-11-16T07:08:32.417Z,97833.40
2022-11-16T07:11:11.789Z,97832.40
2022-11-16T07:13:48.992Z,97829.00
2022-11-16T07:16:25.250Z,97827.00
2022-11-16T07:19:05.259Z,97825.00
2022-11-16T07:21:41.602Z,97818.80
2022-11-16T07:24:21.800Z,97818.80
2022-11-16T07:26:57.694Z,97817.60
2022-11-16T07:29:34.936Z,97817.00
2022-11-16T07:32:43.373Z,97820.40
2022-11-16T07:36:12.926Z,97819.60
2022-11-16T07:38:49.075Z,97817.60
2022-11-16T07:41:26.363Z,97820.40
2022-11-16T07:44:13.368Z,97821.60
2022-11-16T07:46:50.814Z,97822.40
2022-11-16T07:49:26.618Z,97817.00
2022-11-16T07:52:05.520Z,97816.60
2022-11-16T07:54:45.698Z,97812.00
2022-11-16T07:57:22.654Z,97820.80
2022-11-16T07:59:58.696Z,97825.40
2022-11-16T08:02:36.737Z,97825.60
2022-11-16T08:05:13.314Z,97826.40
2022-11-16T08:07:49.302Z,97827.60
2022-11-16T08:10:25.663Z,97829.40
2022-11-16T08:13:02.912Z,97829.60
2022-11-16T08:15:38.868Z,97828.00
2022-11-16T08:18:15.720Z,97832.00
2022-11-16T08:20:51.667Z,97831.40
2022-11-16T08:23:27.658Z,97831.20
2022-11-16T08:26:09.383Z,97828.00
2022-11-16T08:28:50.956Z,97826.60
2022-11-16T08:31:30.190Z,97826.60
2022-11-16T08:34:16.605Z,97823.80
2022-11-16T08:36:55.818Z,97817.80
2022-11-16T08:39:36.255Z,97823.00
2022-11-16T08:42:12.427Z,97820.00
2022-11-16T08:44:49.202Z,97823.20
2022-11-16T08:47:28.100Z,97827.80
2022-11-16T08:50:08.492Z,97822.40
2022-11-16T08:52:44.572Z,97820.80
2022-11-16T08:55:21.107Z,97819.40
2022-11-16T08:57:58.173Z,97819.40
2022-11-16T09:00:35.061Z,97824.60
2022-11-16T09:03:10.911Z,97830.00
2022-11-16T09:05:47.501Z,97831.60
2022-11-16T09:08:23.318Z,97832.80
2022-11-16T09:10:59.128Z,97829.20
2022-11-16T09:13:35.055Z,97837.20
2022-11-16T09:16:12.016Z,97835.20
2022-11-16T09:18:48.263Z,97830.00
2022-11-16T09:21:26.751Z,97828.80
2022-11-16T09:24:03.127Z,97815.40
2022-11-16T09:26:39.443Z,97808.40
2022-11-16T09:29:19.339Z,97808.60
2022-11-16T09:31:55.481Z,97804.80
2022-11-16T09:34:31.506Z,97803.60
2022-11-16T09:37:08.275Z,97803.80
2022-11-16T09:39:44.017Z,97799.80
2022-11-16T09:42:45.973Z,97796.40
2022-11-16T09:45:32.957Z,97791.40
2022-11-16T09:48:14.883Z,97794.40
2022-11-16T09:50:55.026Z,97786.20
2022-11-16T09:53:39.848Z,97785.40
2022-11-16T09:56:22.443Z,97777.60
2022-11-16T09:59:07.573Z,97775.00
2022-11-16T10:01:51.723Z,97765.80
2022-11-16T10:04:39.298Z,97766.20
2022-11-16T10:07:22.709Z,97755.00
2022-11-16T10:10:00.692Z,97750.60
2022-11-16T10:12:43.998Z,97747.60
2022-11-16T10:15:53.054Z,97744.80
2022-11-16T10:18:49.506Z,97742.80
2022-11-16T10:21:49.297Z,97739.80
2022-11-16T10:24:47.797Z,97732.00
2022-11-16T10:27:45.544Z,97727.40
2022-11-16T10:30:24.129Z,97729.20
2022-11-16T10:33:10.960Z,97725.40
2022-11-16T10:35:53.777Z,97732.80
2022-11-16T10:38:33.158Z,97731.20
2022-11-16T10:41:22.557Z,97730.00
2022-11-16T10:44:01.155Z,97725.40
2022-11-16T10:46:46.897Z,97721.60
2022-11-16T10:49:36.096Z,97719.60
2022-11-16T10:52:12.586Z,97711.40
2022-11-16T10:54:48.664Z,97710.60
2022-11-16T10:57:26.648Z,97709.20
2022-11-16T11:00:03.472Z,97707.40
2022-11-16T11:02:48.908Z,97706.60
2022-11-16T11:05:27.012Z,97708.40
2022-11-16T11:08:11.800Z,97710.80
2022-11-16T11:11:01.881Z,97712.00
2022-11-16T11:13:38.176Z,97711.20
2022-11-16T11:16:22.182Z,97711.40
2022-11-16T11:18:58.224Z,97710.80
2022-11-16T11:21:34.383Z,97713.80
2022-11-16T11:27:22.424Z,97712.20
2022-11-16T11:30:02.665Z,97707.00
2022-11-16T11:32:44.891Z,97708.40
2022-11-16T11:35:33.722Z,97705.20
2022-11-16T11:38:15.899Z,97702.80
2022-11-16T11:41:00.642Z,97702.60
2022-11-16T11:43:40.628Z,97704.40
2022-11-16T11:46:50.237Z,97707.60
2022-11-16T11:49:34.157Z,97708.20
2022-11-16T11:52:22.676Z,97709.00
2022-11-16T11:54:59.281Z,97706.00
2022-11-16T11:57:40.968Z,97710.00
2022-11-16T12:00:21.948Z,97704.60
2022-11-16T12:03:41.575Z,97704.40
2022-11-16T12:06:29.547Z,97702.20
2022-11-16T12:09:31.684Z,97695.60
2022-11-16T12:12:28.899Z,97695.20
2022-11-16T12:15:36.629Z,97699.20
2022-11-16T12:18:38.783Z,97693.00
2022-11-16T12:21:22.718Z,97693.20
2022-11-16T12:24:27.638Z,97686.60
2022-11-16T12:27:19.272Z,97687.40
2022-11-16T12:30:08.715Z,97684.60
2022-11-16T12:33:29.881Z,97682.80
2022-11-16T12:36:30.369Z,97679.80
2022-11-16T12:39:29.174Z,97676.00
2022-11-16T12:42:30.934Z,97676.40
2022-11-16T12:45:43.815Z,97670.60
2022-11-16T12:48:51.265Z,97673.80
2022-11-16T12:51:50.885Z,97677.00
2022-11-16T12:55:25.358Z,97678.40
2022-11-16T12:58:19.373Z,97676.80
2022-11-16T13:01:14.401Z,97674.40
2022-11-16T13:03:57.150Z,97674.60
2022-11-16T13:06:39.783Z,97669.00
2022-11-16T13:09:21.655Z,97666.80
2022-11-16T13:11:59.202Z,97667.60
2022-11-16T13:14:41.353Z,97670.20
2022-11-16T13:17:23.579Z,97668.00
2022-11-16T13:20:35.246Z,97659.40
2022-11-16T13:23:20.080Z,97666.60
2022-11-16T13:26:10.411Z,97666.20
2022-11-16T13:28:57.223Z,97669.40
2022-11-16T13:31:44.394Z,97665.00
2022-11-16T13:34:29.347Z,97665.20
2022-11-16T13:37:44.261Z,97669.00
2022-11-16T13:40:34.266Z,97661.00
2022-11-16T13:43:22.701Z,97662.80
2022-11-16T13:46:03.436Z,97667.20
2022-11-16T13:48:46.063Z,97658.80
2022-11-16T13:51:25.705Z,97661.40
2022-11-16T13:54:44.095Z,97663.40
2022-11-16T13:56:58.503Z,97662.40
2022-11-16T13:59:38.200Z,97660.40
2022-11-16T14:02:36.342Z,97660.60
2022-11-16T14:05:43.767Z,97659.80
2022-11-16T14:08:58.404Z,97653.60
2022-11-16T14:11:39.914Z,97656.80
2022-11-16T14:14:56.297Z,97648.20
2022-11-16T14:17:59.394Z,97649.00
2022-11-16T14:21:03.104Z,97644.40
2022-11-16T14:24:17.469Z,97644.40
2022-11-16T14:27:08.467Z,97642.80
2022-11-16T14:30:03.797Z,97641.20
2022-11-16T14:32:49.842Z,97647.00
2022-11-16T14:35:40.899Z,97645.40
2022-11-16T14:38:33.168Z,97648.20
2022-11-16T14:41:22.615Z,97647.00
2022-11-16T14:44:01.366Z,97645.20
2022-11-16T14:46:40.989Z,97647.00
2022-11-16T14:49:20.476Z,97642.20
2022-11-16T14:52:02.576Z,97639.80
2022-11-16T14:54:49.018Z,97633.40
2022-11-16T14:57:26.965Z,97635.40
2022-11-16T15:00:27.013Z,97639.20
2022-11-16T15:03:03.869Z,97641.00
2022-11-16T15:05:41.144Z,97640.20
2022-11-16T15:08:24.785Z,97639.60
2022-11-16T15:11:01.448Z,97636.20
2022-11-16T15:13:38.249Z,97638.40
2022-11-16T15:16:23.018Z,97636.80
2022-11-16T15:19:13.234Z,97635.60
2022-11-16T15:21:59.206Z,97634.40
2022-11-16T15:24:37.051Z,97633.80
2022-11-16T15:27:37.620Z,97631.00
2022-11-16T15:30:24.844Z,97635.00
2022-11-16T15:33:02.649Z,97638.60
2022-11-16T15:35:40.829Z,97634.60
2022-11-16T15:38:24.252Z,97637.80
2022-11-16T15:41:03.726Z,97638.80
2022-11-16T15:44:11.739Z,97635.40
2022-11-16T15:46:49.032Z,97637.80
2022-11-16T15:49:35.016Z,97639.00
2022-11-16T15:52:11.484Z,97643.20
2022-11-16T15:55:07.465Z,97639.80
2022-11-16T15:57:46.542Z,97636.80
2022-11-16T16:00:31.777Z,97630.80
2022-11-16T16:03:21.509Z,97635.60
2022-11-16T16:05:58.363Z,97628.40
2022-11-16T16:08:41.826Z,97625.00
2022-11-16T16:11:30.722Z,97622.40
2022-11-16T16:14:10.852Z,97626.00
2022-11-16T16:16:52.534Z,97620.20
2022-11-16T16:19:41.293Z,97621.60
2022-11-16T16:22:31.547Z,97622.60
2022-11-16T16:25:23.264Z,97626.00
2022-11-16T16:27:59.995Z,97626.60
2022-11-16T16:30:37.062Z,97629.20
2022-11-16T16:33:24.344Z,97625.20
2022-11-16T16:36:00.225Z,97627.60
2022-11-16T16:38:36.398Z,97625.40
2022-11-16T16:41:24.450Z,97627.20
2022-11-16T16:44:00.952Z,97626.20
2022-11-16T16:46:37.106Z,97625.00
2022-11-16T16:49:13.125Z,97627.20
2022-11-16T16:51:49.408Z,97626.20
2022-11-16T16:54:26.175Z,97626.60
2022-11-16T16:57:02.571Z,97626.00
2022-11-16T16:59:38.468Z,97630.00
2022-11-16T17:02:16.268Z,97630.60
2022-11-16T17:04:52.448Z,97631.20
2022-11-16T17:07:28.632Z,97629.60
2022-11-16T17:10:05.221Z,97634.00
2022-11-16T17:12:41.391Z,97635.40
2022-11-16T17:15:19.497Z,97636.60
2022-11-16T17:17:55.814Z,97637.40
2022-11-16T17:20:32.852Z,97635.00
2022-11-16T17:23:09.169Z,97638.80
2022-11-16T17:25:45.107Z,97635.00
2022-11-16T17:28:21.166Z,97637.20
2022-11-16T17:31:01.287Z,97640.80
2022-11-16T17:33:41.724Z,97637.00
2022-11-16T17:36:19.947Z,97640.40
2022-11-16T17:38:55.878Z,97639.60
2022-11-16T17:41:31.823Z,97641.60
2022-11-16T17:44:09.324Z,97641.40
2022-11-16T17:46:45.311Z,97652.60
2022-11-16T17:49:21.610Z,97651.20
2022-11-16T17:51:57.576Z,97648.40
2022-11-16T17:54:33.698Z,97648.00
2022-11-16T17:57:10.311Z,97651.80
2022-11-16T17:59:46.809Z,97654.20
2022-11-16T18:02:22.931Z,97654.60
2022-11-16T18:04:59.117Z,97650.00
2022-11-16T18:07:38.548Z,97651.60
2022-11-16T18:10:19.261Z,97656.60
2022-11-16T18:12:56.482Z,97652.60
2022-11-16T18:15:37.790Z,97656.60
2022-11-16T18:18:17.450Z,97655.60
2022-11-16T18:20:53.347Z,97649.60
2022-11-16T18:23:29.437Z,97649.60
2022-11-16T18:26:12.600Z,97646.00
2022-11-16T18:28:50.427Z,97648.20
2022-11-16T18:31:28.192Z,97649.00
2022-11-16T18:34:04.498Z,97647.20
2022-11-16T18:36:40.662Z,97647.00
2022-11-16T18:39:17.971Z,97649.60
2022-11-16T18:41:55.291Z,97649.80
2022-11-16T18:44:31.456Z,97648.00
2022-11-16T18:47:07.629Z,97650.40
2022-11-16T18:49:43.513Z,97646.60
2022-11-16T18:52:19.534Z,97652.40
2022-11-16T18:54:55.529Z,97652.60
2022-11-16T18:57:32.502Z,97650.80
2022-11-16T19:00:11.752Z,97649.80
2022-11-16T19:02:48.896Z,97654.40
2022-11-16T19:05:24.760Z,97659.80
2022-11-16T19:08:00.758Z,97658.20
2022-11-16T19:10:40.455Z,97657.40
2022-11-16T19:13:17.867Z,97662.20
2022-11-16T19:15:57.308Z,97662.20
2022-11-16T19:18:33.551Z,97661.40
2022-11-16T19:21:12.931Z,97662.40
2022-11-16T19:23:52.405Z,97657.20
2022-11-16T19:26:30.153Z,97656.00
2022-11-16T19:29:06.961Z,97656.40
2022-11-16T19:31:42.935Z,97657.80
2022-11-16T19:34:19.361Z,97656.40
2022-11-16T19:36:55.310Z,97653.00
2022-11-16T19:39:31.356Z,97660.00
2022-11-16T19:42:07.583Z,97661.00
2022-11-16T19:44:43.693Z,97663.00
2022-11-16T19:47:19.736Z,97653.80
2022-11-16T19:49:56.099Z,97656.20
2022-11-16T19:52:32.466Z,97654.80
2022-11-16T19:55:10.455Z,97660.20
2022-11-16T19:57:46.630Z,97656.40
2022-11-16T20:00:24.502Z,97653.40
2022-11-16T20:03:02.709Z,97650.40
2022-11-16T20:05:38.694Z,97651.00
2022-11-16T20:08:15.760Z,97653.00
2022-11-16T20:10:51.880Z,97651.80
2022-11-16T20:13:27.844Z,97652.00
2022-11-16T20:16:07.382Z,97655.40
2022-11-16T20:18:44.903Z,97660.20
2022-11-16T20:21:29.001Z,97658.20
2022-11-16T20:24:11.195Z,97663.20
2022-11-16T20:26:50.289Z,97665.00
2022-11-16T20:29:26.667Z,97665.80
2022-11-16T20:32:02.723Z,97667.60
2022-11-16T20:34:38.710Z,97670.60
2022-11-16T20:37:16.535Z,97673.00
2022-11-16T20:39:57.254Z,97672.40
2022-11-16T20:42:33.572Z,97672.40
2022-11-16T20:45:13.108Z,97672.60
2022-11-16T20:47:49.152Z,97666.60
2022-11-16T20:50:25.331Z,97667.80
2022-11-16T20:53:01.326Z,97672.40
2022-11-16T20:55:37.960Z,97674.20
2022-11-16T20:58:18.645Z,97666.60
2022-11-16T21:01:00.405Z,97662.80
2022-11-16T21:03:37.716Z,97654.00
2022-11-16T21:06:15.095Z,97655.40
2022-11-16T21:08:51.328Z,97656.60
2022-11-16T21:11:51.210Z,97649.20
2022-11-16T21:14:28.685Z,97642.00
2022-11-16T21:17:05.192Z,97642.60
2022-11-16T21:19:54.308Z,97641.60
2022-11-16T21:22:38.759Z,97646.20
2022-11-16T21:25:15.957Z,97647.40
2022-11-16T21:27:52.686Z,97646.40
2022-11-16T21:30:31.541Z,97638.60
2022-11-16T21:33:07.900Z,97641.80
2022-11-16T21:35:44.550Z,97642.80
2022-11-16T21:38:21.259Z,97642.40
2022-11-16T21:40:57.394Z,97642.40
2022-11-16T21:43:35.573Z,97644.40
2022-11-16T21:46:16.004Z,97637.00
2022-11-16T21:48:52.935Z,97633.00
2022-11-16T21:51:30.906Z,97634.00
2022-11-16T21:54:07.428Z,97629.80
2022-11-16T21:56:43.354Z,97632.80
2022-11-16T21:59:19.276Z,97634.80
2022-11-16T22:02:00.705Z,97636.00
2022-11-16T22:04:54.324Z,97632.80
2022-11-16T22:07:37.829Z,97638.60
2022-11-16T22:10:15.682Z,97642.60
2022-11-16T22:12:51.465Z,97641.20
2022-11-16T22:15:27.357Z,97649.20
2022-11-16T22:18:04.603Z,97649.00
2022-11-16T22:20:40.580Z,97652.60
2022-11-16T22:23:22.521Z,97647.40
2022-11-16T22:26:04.042Z,97648.00
2022-11-16T22:28:40.523Z,97650.00
2022-11-16T22:31:18.080Z,97646.20
2022-11-16T22:33:57.188Z,97641.60
2022-11-16T22:36:33.029Z,97637.20
2022-11-16T22:39:09.059Z,97635.40
2022-11-16T22:41:45.002Z,97639.20
2022-11-16T22:44:20.964Z,97636.60
2022-11-16T22:46:57.316Z,97642.40
2022-11-16T22:49:33.451Z,97646.20
2022-11-16T22:52:09.528Z,97642.00
2022-11-16T22:54:45.534Z,97646.00
2022-11-16T22:57:21.769Z,97645.00
2022-11-16T22:59:57.712Z,97645.80
2022-11-16T23:02:33.519Z,97652.00
2022-11-16T23:05:10.969Z,97646.80
2022-11-16T23:07:46.860Z,97645.20
2022-11-16T23:10:23.106Z,97644.80
2022-11-16T23:13:16.663Z,97643.00
2022-11-16T23:15:52.952Z,97642.20
2022-11-16T23:18:29.573Z,97641.00
2022-11-16T23:21:24.684Z,97642.20
2022-11-16T23:24:21.407Z,97638.40
2022-11-16T23:27:15.568Z,97631.20
2022-11-16T23:29:53.558Z,97628.60
2022-11-16T23:32:30.254Z,97629.60
2022-11-16T23:35:07.154Z,97626.40
2022-11-16T23:37:57.066Z,97628.20
2022-11-16T23:40:36.217Z,97630.20
2022-11-16T23:43:31.637Z,97627.20
2022-11-16T23:46:07.743Z,97625.80
2022-11-16T23:48:43.913Z,97620.40
2022-11-16T23:51:23.804Z,97617.20
2022-11-16T23:54:00.306Z,97611.40
2022-11-16T23:56:36.436Z,97609.20
2022-11-16T23:59:13.113Z,97614.80
